createdAt,value
2023-01-31T00:00:26.285Z,75.27
2023-01-31T00:02:57.970Z,75.42
2023-01-31T00:05:26.824Z,75.46
2023-01-31T00:07:55.817Z,75.54
2023-01-31T00:10:24.722Z,75.59
2023-01-31T00:12:54.030Z,75.66
2023-01-31T00:15:22.841Z,75.73
2023-01-31T00:17:51.379Z,75.46
2023-01-31T00:20:20.168Z,75.28
2023-01-31T00:22:49.071Z,75.25
2023-01-31T00:25:18.477Z,75.27
2023-01-31T00:27:47.144Z,75.45
2023-01-31T00:30:16.547Z,75.86
2023-01-31T00:32:45.645Z,76.09
2023-01-31T00:35:14.234Z,75.75
2023-01-31T00:37:45.264Z,75.62
2023-01-31T00:40:21.840Z,75.73
2023-01-31T00:42:50.645Z,75.74
2023-01-31T00:45:19.378Z,75.64
2023-01-31T00:47:48.301Z,75.97
2023-01-31T00:50:18.675Z,75.98
2023-01-31T00:52:47.483Z,76.29
2023-01-31T00:55:16.888Z,76.17
2023-01-31T00:57:45.602Z,76.00
2023-01-31T01:00:15.314Z,75.90
2023-01-31T01:02:43.904Z,75.97
2023-01-31T01:05:12.687Z,75.78
2023-01-31T01:07:41.371Z,75.62
2023-01-31T01:10:11.305Z,75.52
2023-01-31T01:12:40.071Z,75.34
2023-01-31T01:15:10.403Z,75.06
2023-01-31T01:17:39.899Z,75.04
2023-01-31T01:20:09.623Z,74.57
2023-01-31T01:22:42.922Z,73.97
2023-01-31T01:25:11.598Z,73.54
2023-01-31T01:27:40.377Z,73.53
2023-01-31T01:30:10.117Z,73.62
2023-01-31T01:32:39.389Z,73.66
2023-01-31T01:35:10.427Z,73.76
2023-01-31T01:37:38.913Z,73.93
2023-01-31T01:40:09.462Z,73.89
2023-01-31T01:42:38.128Z,74.03
2023-01-31T01:45:16.091Z,74.20
2023-01-31T01:47:51.067Z,74.34
2023-01-31T01:50:44.321Z,74.21
2023-01-31T01:53:16.151Z,73.76
2023-01-31T01:55:50.778Z,73.39
2023-01-31T01:58:24.520Z,73.80
2023-01-31T02:00:53.329Z,73.76
2023-01-31T02:03:22.199Z,73.78
2023-01-31T02:05:53.548Z,73.90
2023-01-31T02:08:24.165Z,73.90
2023-01-31T02:11:08.107Z,73.61
2023-01-31T02:13:38.273Z,73.81
2023-01-31T02:16:07.153Z,73.37
2023-01-31T02:18:36.936Z,73.44
2023-01-31T02:21:38.486Z,73.32
2023-01-31T02:24:37.993Z,73.28
2023-01-31T02:27:15.997Z,73.35
2023-01-31T02:30:22.929Z,73.57
2023-01-31T02:33:01.196Z,73.44
2023-01-31T02:35:38.275Z,73.29
2023-01-31T02:38:09.843Z,73.44
2023-01-31T02:40:45.690Z,73.64
2023-01-31T02:44:04.539Z,73.61
2023-01-31T02:46:46.752Z,73.36
2023-01-31T02:49:36.994Z,73.64
2023-01-31T02:52:27.942Z,73.58
2023-01-31T02:55:27.460Z,73.68
2023-01-31T02:57:57.262Z,73.68
2023-01-31T03:00:26.563Z,73.81
2023-01-31T03:02:56.680Z,73.93
2023-01-31T03:05:25.893Z,74.20
2023-01-31T03:07:56.920Z,74.33
2023-01-31T03:10:28.885Z,74.49
2023-01-31T03:13:36.788Z,74.45
2023-01-31T03:16:27.109Z,74.46
2023-01-31T03:18:58.836Z,74.54
2023-01-31T03:21:37.866Z,74.64
2023-01-31T03:24:06.958Z,75.01
2023-01-31T03:26:36.596Z,75.20
2023-01-31T03:29:05.559Z,75.34
2023-01-31T03:31:38.370Z,75.51
2023-01-31T03:34:08.972Z,75.55
2023-01-31T03:36:37.476Z,75.39
2023-01-31T03:39:48.041Z,75.40
2023-01-31T03:42:38.212Z,75.58
2023-01-31T03:45:20.857Z,75.63
2023-01-31T03:47:51.556Z,75.77
2023-01-31T03:50:30.175Z,75.96
2023-01-31T03:53:38.282Z,75.71
2023-01-31T03:56:27.659Z,75.83
2023-01-31T03:59:01.584Z,75.90
2023-01-31T04:01:32.548Z,75.78
2023-01-31T04:04:33.263Z,75.88
2023-01-31T04:07:02.231Z,76.16
2023-01-31T04:09:32.173Z,76.27
2023-01-31T04:12:01.655Z,76.38
2023-01-31T04:14:30.455Z,76.26
2023-01-31T04:16:59.019Z,76.39
2023-01-31T04:19:27.504Z,76.36
2023-01-31T04:21:56.013Z,76.26
2023-01-31T04:24:24.877Z,76.45
2023-01-31T04:26:53.455Z,76.53
2023-01-31T04:29:22.141Z,76.60
2023-01-31T04:31:51.079Z,76.70
2023-01-31T04:34:19.819Z,76.89
2023-01-31T04:36:48.502Z,77.02
2023-01-31T04:39:17.228Z,76.98
2023-01-31T04:41:45.983Z,77.36
2023-01-31T04:44:14.661Z,77.36
2023-01-31T04:46:43.508Z,77.28
2023-01-31T04:49:12.568Z,77.43
2023-01-31T04:51:41.131Z,77.68
2023-01-31T04:54:09.611Z,77.73
2023-01-31T04:56:38.912Z,77.75
2023-01-31T04:59:07.737Z,77.63
2023-01-31T05:01:36.485Z,77.62
2023-01-31T05:04:05.181Z,77.44
2023-01-31T05:06:33.675Z,77.28
2023-01-31T05:09:05.372Z,77.23
2023-01-31T05:11:34.182Z,77.31
2023-01-31T05:14:03.702Z,77.38
2023-01-31T05:16:33.924Z,77.66
2023-01-31T05:19:02.925Z,77.79
2023-01-31T05:21:51.246Z,77.93
2023-01-31T05:24:20.568Z,77.85
2023-01-31T05:26:51.008Z,77.98
2023-01-31T05:29:20.674Z,77.93
2023-01-31T05:31:53.831Z,77.74
2023-01-31T05:34:22.989Z,77.66
2023-01-31T05:36:52.819Z,77.67
2023-01-31T05:39:21.596Z,77.73
2023-01-31T05:41:50.523Z,77.70
2023-01-31T05:44:19.980Z,77.79
2023-01-31T05:46:49.685Z,77.41
2023-01-31T05:49:18.306Z,77.25
2023-01-31T05:51:47.167Z,77.30
2023-01-31T05:54:16.188Z,77.56
2023-01-31T05:56:46.753Z,77.72
2023-01-31T05:59:16.401Z,77.75
2023-01-31T06:01:46.510Z,77.90
2023-01-31T06:04:15.467Z,77.95
2023-01-31T06:06:45.737Z,77.77
2023-01-31T06:09:15.350Z,77.93
2023-01-31T06:11:44.945Z,77.67
2023-01-31T06:14:13.747Z,77.61
2023-01-31T06:16:42.279Z,77.90
2023-01-31T06:19:10.795Z,78.33
2023-01-31T06:21:40.303Z,78.48
2023-01-31T06:24:09.204Z,79.01
2023-01-31T06:26:38.229Z,79.01
2023-01-31T06:29:09.085Z,79.07
2023-01-31T06:31:37.825Z,79.14
2023-01-31T06:34:06.594Z,79.05
2023-01-31T06:36:35.485Z,79.22
2023-01-31T06:39:04.685Z,79.64
2023-01-31T06:41:33.174Z,79.39
2023-01-31T06:44:02.307Z,79.53
2023-01-31T06:46:31.609Z,79.51
2023-01-31T06:49:00.246Z,79.34
2023-01-31T06:51:31.717Z,79.28
2023-01-31T06:54:00.420Z,78.69
2023-01-31T06:56:29.273Z,78.87
2023-01-31T06:58:58.058Z,78.94
2023-01-31T07:01:27.449Z,78.86
2023-01-31T07:03:56.626Z,77.98
2023-01-31T07:06:25.447Z,77.23
2023-01-31T07:08:54.131Z,77.38
2023-01-31T07:11:22.930Z,77.47
2023-01-31T07:13:51.888Z,77.23
2023-01-31T07:16:23.000Z,76.92
2023-01-31T07:18:53.588Z,77.46
2023-01-31T07:21:25.045Z,77.14
2023-01-31T07:23:54.231Z,76.92
2023-01-31T07:26:24.458Z,76.65
2023-01-31T07:28:53.957Z,76.41
2023-01-31T07:31:22.605Z,76.61
2023-01-31T07:33:51.533Z,76.57
2023-01-31T07:36:26.708Z,76.88
2023-01-31T11:38:13.235Z,74.91
2023-01-31T11:40:41.891Z,73.51
2023-01-31T11:43:19.941Z,73.53
2023-01-31T11:45:58.579Z,73.05
2023-01-31T11:48:33.577Z,73.31
2023-01-31T11:51:02.000Z,73.07
2023-01-31T11:53:50.118Z,73.19
2023-01-31T11:56:23.083Z,72.94
2023-01-31T11:58:57.204Z,72.85
2023-01-31T12:01:26.292Z,73.26
2023-01-31T12:04:03.485Z,73.13
2023-01-31T12:06:40.433Z,73.16
2023-01-31T12:09:23.582Z,73.26
2023-01-31T12:12:00.055Z,73.62
2023-01-31T12:14:40.745Z,73.81
2023-01-31T12:17:14.533Z,73.56
2023-01-31T12:19:52.014Z,73.30
2023-01-31T12:22:40.461Z,73.43
2023-01-31T12:25:26.763Z,73.69
2023-01-31T12:28:02.963Z,73.41
2023-01-31T12:30:58.026Z,73.64
2023-01-31T12:33:39.305Z,73.84
2023-01-31T12:36:30.624Z,73.74
2023-01-31T12:39:28.389Z,73.77
2023-01-31T12:41:59.844Z,73.92
2023-01-31T12:44:31.800Z,73.71
2023-01-31T12:47:16.384Z,73.80
2023-01-31T12:50:16.485Z,73.56
2023-01-31T12:53:00.530Z,73.68
2023-01-31T12:55:31.180Z,74.00
2023-01-31T12:58:14.894Z,74.39
2023-01-31T13:01:08.029Z,73.68
2023-01-31T13:04:01.116Z,73.84
2023-01-31T13:06:35.025Z,74.41
2023-01-31T13:09:11.527Z,74.17
2023-01-31T13:11:43.250Z,74.77
2023-01-31T13:14:16.037Z,75.08
2023-01-31T13:16:46.053Z,75.40
2023-01-31T13:19:32.696Z,75.40
2023-01-31T13:22:03.542Z,75.69
2023-01-31T13:24:37.702Z,75.47
2023-01-31T13:27:11.102Z,75.69
2023-01-31T13:29:44.803Z,75.49
2023-01-31T13:32:14.729Z,75.73
2023-01-31T13:34:52.416Z,75.88
2023-01-31T13:37:21.656Z,76.01
2023-01-31T13:39:52.738Z,76.40
2023-01-31T13:42:21.336Z,76.14
2023-01-31T13:44:50.532Z,76.56
2023-01-31T13:47:25.973Z,76.33
2023-01-31T13:49:58.879Z,76.31
2023-01-31T13:52:36.761Z,76.51
2023-01-31T13:55:09.910Z,76.14
2023-01-31T13:57:46.947Z,76.15
2023-01-31T14:00:42.450Z,76.50
2023-01-31T14:03:15.771Z,76.78
2023-01-31T14:05:50.243Z,76.90
2023-01-31T14:08:27.767Z,77.07
2023-01-31T14:11:22.237Z,77.04
2023-01-31T14:14:08.955Z,77.43
2023-01-31T14:16:46.218Z,77.97
2023-01-31T14:19:22.298Z,78.30
2023-01-31T14:21:58.265Z,79.02
2023-01-31T14:25:00.515Z,79.12
2023-01-31T14:27:33.981Z,79.74
2023-01-31T14:30:06.081Z,79.88
2023-01-31T14:32:45.069Z,80.91
2023-01-31T14:35:15.346Z,81.45
2023-01-31T14:38:18.431Z,81.60
2023-01-31T14:41:09.235Z,81.56
2023-01-31T14:44:15.617Z,81.93
2023-01-31T14:47:13.684Z,82.15
2023-01-31T14:50:05.900Z,81.99
2023-01-31T14:52:53.750Z,82.22
2023-01-31T14:55:33.603Z,82.75
2023-01-31T14:58:02.799Z,82.78
2023-01-31T15:00:38.644Z,82.89
2023-01-31T15:03:22.781Z,82.93
2023-01-31T15:05:53.377Z,82.99
2023-01-31T15:08:22.111Z,83.47
2023-01-31T15:10:58.296Z,84.11
2023-01-31T15:13:47.613Z,84.01
2023-01-31T15:16:22.125Z,84.28
2023-01-31T15:18:59.150Z,84.50
2023-01-31T15:21:52.267Z,84.57
2023-01-31T15:24:34.328Z,84.60
2023-01-31T15:27:04.535Z,84.88
2023-01-31T15:29:57.176Z,84.89
2023-01-31T15:32:46.161Z,84.73
2023-01-31T15:35:24.191Z,84.84
2023-01-31T15:38:29.078Z,84.20
2023-01-31T15:41:16.503Z,84.28
2023-01-31T15:43:45.797Z,84.26
2023-01-31T15:46:25.473Z,84.12
2023-01-31T15:48:54.023Z,84.51
2023-01-31T15:51:23.645Z,84.47
2023-01-31T15:54:03.404Z,84.46
2023-01-31T15:56:34.725Z,84.53
2023-01-31T15:59:17.291Z,84.99
2023-01-31T16:01:49.923Z,84.96
2023-01-31T16:04:18.410Z,84.96
2023-01-31T16:06:50.563Z,85.52
2023-01-31T16:09:32.565Z,85.57
2023-01-31T18:49:34.320Z,93.16
2023-01-31T18:52:07.313Z,93.18
2023-01-31T18:54:37.922Z,93.38
2023-01-31T18:57:07.137Z,93.24
2023-01-31T18:59:36.852Z,93.38
2023-01-31T19:02:06.091Z,92.58
2023-01-31T19:04:35.871Z,92.43
2023-01-31T19:07:05.051Z,91.82
2023-01-31T19:09:33.646Z,91.33
2023-01-31T19:12:05.599Z,90.93
2023-01-31T19:14:36.231Z,91.10
2023-01-31T19:17:06.964Z,90.47
2023-01-31T19:19:36.979Z,90.07
2023-01-31T19:22:08.331Z,90.11
2023-01-31T19:24:37.013Z,89.48
2023-01-31T19:27:06.347Z,89.46
2023-01-31T19:29:39.489Z,89.52
2023-01-31T19:32:13.416Z,89.25
2023-01-31T19:34:42.922Z,89.19
2023-01-31T19:37:14.961Z,89.19
2023-01-31T19:39:47.822Z,88.81
2023-01-31T19:42:16.879Z,88.68
2023-01-31T19:44:47.613Z,88.73
2023-01-31T19:47:16.330Z,88.59
2023-01-31T19:49:49.121Z,88.05
2023-01-31T19:52:18.849Z,87.84
2023-01-31T19:54:50.320Z,87.86
2023-01-31T19:57:21.366Z,87.76
2023-01-31T19:59:50.870Z,88.23
2023-01-31T20:02:19.640Z,87.84
2023-01-31T20:04:50.086Z,87.81
2023-01-31T20:07:21.875Z,87.80
2023-01-31T20:09:51.706Z,87.83
2023-01-31T20:12:23.612Z,87.53
2023-01-31T20:14:53.975Z,87.58
2023-01-31T20:17:25.395Z,87.32
2023-01-31T20:19:54.432Z,86.76
2023-01-31T20:22:25.179Z,87.01
2023-01-31T20:24:55.276Z,87.14
2023-01-31T20:27:26.014Z,87.31
2023-01-31T20:29:55.672Z,87.49
2023-01-31T20:32:24.370Z,87.49
2023-01-31T20:34:53.871Z,87.74
2023-01-31T20:37:23.676Z,87.64
2023-01-31T20:39:52.980Z,87.76
2023-01-31T20:42:22.079Z,87.69
2023-01-31T20:44:51.281Z,88.16
2023-01-31T20:47:20.262Z,88.19
2023-01-31T20:49:49.561Z,88.50
2023-01-31T20:52:21.832Z,88.16
2023-01-31T20:54:50.833Z,88.13
2023-01-31T20:57:20.331Z,88.07
2023-01-31T20:59:50.749Z,87.98
2023-01-31T21:02:21.099Z,87.71
2023-01-31T21:04:49.975Z,88.50
2023-01-31T21:07:18.566Z,88.33
2023-01-31T21:09:47.984Z,88.25
2023-01-31T21:12:17.667Z,88.81
2023-01-31T21:14:46.356Z,89.18
2023-01-31T21:17:22.664Z,88.94
2023-01-31T21:19:59.061Z,89.08
2023-01-31T21:22:31.701Z,88.71
2023-01-31T21:25:00.382Z,88.63
2023-01-31T21:27:31.873Z,88.49
2023-01-31T21:30:01.549Z,88.63
2023-01-31T21:32:30.872Z,88.57
2023-01-31T21:34:59.594Z,88.50
2023-01-31T21:37:28.288Z,88.36
2023-01-31T21:39:56.662Z,88.08
2023-01-31T21:42:25.978Z,88.05
2023-01-31T21:44:54.872Z,87.88
2023-01-31T21:47:23.532Z,88.33
2023-01-31T21:49:52.636Z,88.36
2023-01-31T21:52:22.136Z,87.70
2023-01-31T21:54:50.929Z,87.97
2023-01-31T21:57:21.154Z,88.28
2023-01-31T21:59:50.034Z,88.47
2023-01-31T22:02:19.065Z,88.58
2023-01-31T22:04:48.947Z,89.25
2023-01-31T22:07:18.037Z,89.25
2023-01-31T22:09:46.721Z,89.44
2023-01-31T22:12:16.045Z,89.85
2023-01-31T22:14:44.808Z,89.72
2023-01-31T22:17:13.397Z,89.70
2023-01-31T22:19:43.143Z,89.89
2023-01-31T22:22:12.209Z,89.92
2023-01-31T22:24:40.882Z,90.01
2023-01-31T22:27:09.362Z,90.25
2023-01-31T22:29:38.253Z,90.47
2023-01-31T22:32:07.742Z,90.61
2023-01-31T22:34:37.161Z,91.09
2023-01-31T22:37:05.887Z,91.04
2023-01-31T22:39:34.441Z,90.72
2023-01-31T22:42:05.681Z,91.05
2023-01-31T22:44:34.467Z,91.23
2023-01-31T22:47:03.461Z,91.36
2023-01-31T22:49:33.473Z,91.43
2023-01-31T22:52:02.157Z,91.53
2023-01-31T22:54:31.047Z,91.61
2023-01-31T22:56:59.842Z,92.00
2023-01-31T22:59:29.346Z,91.98
2023-01-31T23:01:57.927Z,91.75
2023-01-31T23:04:26.824Z,91.67
2023-01-31T23:06:55.707Z,91.99
2023-01-31T23:09:24.697Z,92.08
2023-01-31T23:11:54.865Z,91.69
2023-01-31T23:14:23.615Z,91.67
2023-01-31T23:17:10.930Z,91.88
2023-01-31T23:19:40.548Z,91.18
2023-01-31T23:22:09.844Z,91.09
2023-01-31T23:24:39.034Z,90.92
2023-01-31T23:27:08.040Z,90.64
2023-01-31T23:29:36.932Z,90.49
2023-01-31T23:32:06.113Z,90.72
2023-01-31T23:34:34.602Z,90.40
2023-01-31T23:37:03.592Z,90.43
2023-01-31T23:39:32.173Z,90.06
2023-01-31T23:42:00.959Z,90.32
2023-01-31T23:44:30.462Z,90.02
2023-01-31T23:46:58.943Z,90.16
2023-01-31T23:49:27.635Z,90.05
2023-01-31T23:51:56.725Z,90.01
2023-01-31T23:54:25.922Z,90.17
2023-01-31T23:56:54.513Z,89.89
2023-01-31T23:59:23.192Z,89.80
